Time;durP1;ratioP1;P1;durP2;ratioP2;P2;SDS_P1;SDS_P2;PMS_P1;PMS_P2;Temp;Humidity;BMP_temperature;BMP_pressure;BME280_temperature;BME280_humidity;BME280_pressure;Samples;Min_cycle;Max_cycle;Signal;HPM_P1;HPM_P2
2023/07/03 00:01:07;;;;;;;10.30;6.93;;;;;;;;;;5073988;28;20206;-67
2023/07/03 00:03:39;;;;;;;12.18;6.53;;;;;;;;;;5078923;28;20285;-67
2023/07/03 00:06:07;;;;;;;17.65;6.75;;;;;;;;;;5078083;28;20227;-67
2023/07/03 00:08:34;;;;;;;17.80;7.90;;;;;;;;;;5078304;28;20206;-67
2023/07/03 00:11:02;;;;;;;17.40;7.13;;;;;;;;;;5074136;28;20203;-67
2023/07/03 00:13:29;;;;;;;13.05;6.90;;;;;;;;;;5075765;28;20202;-67
2023/07/03 00:15:59;;;;;;;18.00;7.15;;;;;;;;;;5068600;28;20321;-68
2023/07/03 00:18:26;;;;;;;11.70;7.10;;;;;;;;;;5076980;28;20207;-67
2023/07/03 00:20:54;;;;;;;14.65;7.03;;;;;;;;;;5082101;28;20214;-67
2023/07/03 00:23:22;;;;;;;13.45;7.25;;;;;;;;;;5075505;28;20198;-67
2023/07/03 00:25:49;;;;;;;19.33;7.18;;;;;;;;;;5075689;28;20218;-73
2023/07/03 00:28:17;;;;;;;13.55;7.50;;;;;;;;;;5076975;28;20206;-74
2023/07/03 00:30:44;;;;;;;15.02;6.82;;;;;;;;;;5073714;28;20207;-73
2023/07/03 00:33:11;;;;;;;14.10;7.05;;;;;;;;;;5075695;28;20217;-71
2023/07/03 00:35:39;;;;;;;16.05;7.40;;;;;;;;;;5072546;28;20203;-73
2023/07/03 00:38:08;;;;;;;12.52;6.85;;;;;;;;;;5077895;28;20240;-73
2023/07/03 00:40:35;;;;;;;11.43;6.63;;;;;;;;;;5075934;28;20252;-73
2023/07/03 00:43:03;;;;;;;16.40;7.68;;;;;;;;;;5078282;28;20198;-73
2023/07/03 00:45:31;;;;;;;13.30;7.07;;;;;;;;;;5073208;28;20195;-72
2023/07/03 00:47:59;;;;;;;14.27;7.05;;;;;;;;;;5072860;28;20210;-71
2023/07/03 00:50:26;;;;;;;12.77;6.88;;;;;;;;;;5072021;28;20194;-74
2023/07/03 00:52:54;;;;;;;11.82;6.90;;;;;;;;;;5076024;28;20209;-72
2023/07/03 00:55:23;;;;;;;13.00;6.82;;;;;;;;;;5076725;28;20203;-71
2023/07/03 00:57:51;;;;;;;10.20;5.88;;;;;;;;;;5075310;28;20202;-73
2023/07/03 01:00:20;;;;;;;16.98;6.97;;;;;;;;;;5073604;28;20209;-67
2023/07/03 01:02:51;;;;;;;13.88;6.55;;;;;;;;;;5075288;28;20195;-72
2023/07/03 01:05:20;;;;;;;13.73;6.60;;;;;;;;;;5082018;28;20311;-67
2023/07/03 01:07:47;;;;;;;16.00;6.63;;;;;;;;;;5072722;28;20234;-67
2023/07/03 01:10:17;;;;;;;13.32;6.10;;;;;;;;;;5074658;28;20202;-67
2023/07/03 01:12:47;;;;;;;12.98;5.95;;;;;;;;;;5080142;28;20229;-67
2023/07/03 01:15:17;;;;;;;12.63;6.03;;;;;;;;;;5078619;28;20241;-71
2023/07/03 01:17:47;;;;;;;13.38;5.32;;;;;;;;;;5081119;28;20190;-67
2023/07/03 01:20:16;;;;;;;12.35;5.90;;;;;;;;;;5078369;28;20341;-68
2023/07/03 01:22:46;;;;;;;13.90;5.70;;;;;;;;;;5075259;28;20207;-67
2023/07/03 01:25:17;;;;;;;12.23;5.20;;;;;;;;;;5085440;28;20228;-67
2023/07/03 01:27:45;;;;;;;12.13;5.15;;;;;;;;;;5078009;28;20222;-68
2023/07/03 01:30:15;;;;;;;10.48;5.32;;;;;;;;;;5076772;28;20203;-67
2023/07/03 01:32:43;;;;;;;12.18;5.05;;;;;;;;;;5076274;28;20243;-67
2023/07/03 01:35:12;;;;;;;8.77;4.45;;;;;;;;;;5079662;28;20205;-67
2023/07/03 01:37:42;;;;;;;11.23;4.63;;;;;;;;;;5080838;28;20231;-68
2023/07/03 01:40:10;;;;;;;11.23;4.65;;;;;;;;;;5072282;28;20203;-67
2023/07/03 01:42:40;;;;;;;9.68;4.05;;;;;;;;;;5076543;28;20206;-67
2023/07/03 01:45:08;;;;;;;15.07;5.13;;;;;;;;;;5077877;28;20246;-67
2023/07/03 01:47:36;;;;;;;14.98;4.55;;;;;;;;;;5080379;28;20224;-69
2023/07/03 01:50:03;;;;;;;12.52;4.85;;;;;;;;;;5070814;28;20206;-67
2023/07/03 01:52:33;;;;;;;10.85;4.35;;;;;;;;;;5077767;28;20209;-67
2023/07/03 01:55:03;;;;;;;11.88;4.88;;;;;;;;;;5080368;28;20202;-67
2023/07/03 01:57:35;;;;;;;11.82;4.53;;;;;;;;;;5078585;28;20234;-67
2023/07/03 02:00:05;;;;;;;15.13;5.22;;;;;;;;;;5079297;28;20199;-67
2023/07/03 02:02:32;;;;;;;9.60;4.60;;;;;;;;;;5074599;28;20221;-67
2023/07/03 02:05:03;;;;;;;10.52;4.75;;;;;;;;;;5077119;28;20222;-67
2023/07/03 02:07:31;;;;;;;14.30;4.90;;;;;;;;;;5083641;28;20218;-67
2023/07/03 02:09:58;;;;;;;17.98;4.90;;;;;;;;;;5074861;28;20203;-68
2023/07/03 02:12:25;;;;;;;14.35;4.63;;;;;;;;;;5078187;28;20206;-69
2023/07/03 02:14:52;;;;;;;13.75;4.78;;;;;;;;;;5069700;28;20203;-70
2023/07/03 02:17:21;;;;;;;13.93;4.82;;;;;;;;;;5077200;28;20202;-69
2023/07/03 02:19:48;;;;;;;9.30;4.13;;;;;;;;;;5073891;28;20301;-69
2023/07/03 02:22:15;;;;;;;11.75;4.60;;;;;;;;;;5080128;28;20211;-69
2023/07/03 02:24:43;;;;;;;10.90;4.65;;;;;;;;;;5078120;28;20209;-69
2023/07/03 02:27:10;;;;;;;11.00;4.50;;;;;;;;;;5076483;28;20218;-68
2023/07/03 02:29:37;;;;;;;12.32;4.50;;;;;;;;;;5078390;28;20221;-68
2023/07/03 02:32:08;;;;;;;11.25;4.60;;;;;;;;;;5071701;28;20211;-68
2023/07/03 02:34:36;;;;;;;12.98;4.40;;;;;;;;;;5080906;28;20201;-68
2023/07/03 02:37:04;;;;;;;11.15;4.50;;;;;;;;;;5071181;28;20332;-68
2023/07/03 02:39:32;;;;;;;14.77;5.00;;;;;;;;;;5078598;28;20203;-69
2023/07/03 02:41:59;;;;;;;11.57;4.10;;;;;;;;;;5071308;28;20203;-69
2023/07/03 02:44:26;;;;;;;10.73;4.25;;;;;;;;;;5072793;28;20209;-69
2023/07/03 02:46:53;;;;;;;13.38;4.70;;;;;;;;;;5082935;28;20214;-69
2023/07/03 02:49:20;;;;;;;15.10;4.82;;;;;;;;;;5078183;28;20206;-68
2023/07/03 02:51:49;;;;;;;10.38;3.83;;;;;;;;;;5080185;28;20210;-69
2023/07/03 02:54:16;;;;;;;13.88;4.80;;;;;;;;;;5082034;28;20206;-69
2023/07/03 02:56:43;;;;;;;11.27;4.35;;;;;;;;;;5077237;28;20220;-69
2023/07/03 02:59:11;;;;;;;11.40;4.43;;;;;;;;;;5084516;28;20222;-68
2023/07/03 03:01:38;;;;;;;11.80;4.75;;;;;;;;;;5077026;28;20210;-68
2023/07/03 03:04:06;;;;;;;13.02;4.63;;;;;;;;;;5078981;28;20207;-68
2023/07/03 03:06:33;;;;;;;11.32;4.22;;;;;;;;;;5071645;28;20218;-68
2023/07/03 03:09:02;;;;;;;10.60;4.30;;;;;;;;;;5076257;28;20199;-68
2023/07/03 03:11:29;;;;;;;12.00;4.20;;;;;;;;;;5078115;28;20229;-68
2023/07/03 03:13:56;;;;;;;12.73;4.40;;;;;;;;;;5083050;28;20203;-68
2023/07/03 03:16:23;;;;;;;13.10;4.40;;;;;;;;;;5081109;28;20203;-68
2023/07/03 03:18:51;;;;;;;14.35;4.63;;;;;;;;;;5072003;28;20271;-68
2023/07/03 03:21:18;;;;;;;11.52;4.40;;;;;;;;;;5080673;28;20203;-68
2023/07/03 03:23:45;;;;;;;11.05;3.90;;;;;;;;;;5078099;28;20194;-68
2023/07/03 03:26:14;;;;;;;12.05;4.63;;;;;;;;;;5073920;28;20206;-68
2023/07/03 03:28:41;;;;;;;11.45;3.97;;;;;;;;;;5076611;28;20270;-68
2023/07/03 03:31:08;;;;;;;13.60;4.03;;;;;;;;;;5070056;28;20199;-69
2023/07/03 03:33:35;;;;;;;10.25;4.15;;;;;;;;;;5075449;28;20199;-69
2023/07/03 03:36:02;;;;;;;10.02;3.90;;;;;;;;;;5075467;28;20207;-68
2023/07/03 03:38:29;;;;;;;13.35;4.18;;;;;;;;;;5077904;28;20202;-68
2023/07/03 03:40:57;;;;;;;11.32;4.20;;;;;;;;;;5079113;28;20205;-68
2023/07/03 03:43:26;;;;;;;14.45;4.30;;;;;;;;;;5077405;28;20217;-68
2023/07/03 03:45:56;;;;;;;11.32;4.22;;;;;;;;;;5076475;28;20205;-68
2023/07/03 03:48:24;;;;;;;9.40;4.00;;;;;;;;;;5077707;28;20218;-68
2023/07/03 03:50:52;;;;;;;11.00;4.00;;;;;;;;;;5073844;28;20202;-68
2023/07/03 03:53:19;;;;;;;11.25;4.20;;;;;;;;;;5075912;28;20215;-68
2023/07/03 03:55:49;;;;;;;14.60;4.60;;;;;;;;;;5078599;28;20210;-68
2023/07/03 03:58:16;;;;;;;12.70;4.50;;;;;;;;;;5078903;28;20213;-68
2023/07/03 04:00:45;;;;;;;11.40;4.15;;;;;;;;;;5073972;28;20202;-68
2023/07/03 04:03:12;;;;;;;13.85;4.05;;;;;;;;;;5072301;28;20209;-68
2023/07/03 04:05:41;;;;;;;10.55;3.95;;;;;;;;;;5075738;28;20210;-69
2023/07/03 04:08:08;;;;;;;14.82;4.22;;;;;;;;;;5075956;28;20227;-69
2023/07/03 04:10:35;;;;;;;10.63;4.10;;;;;;;;;;5076592;28;20202;-68
2023/07/03 04:13:02;;;;;;;17.45;4.47;;;;;;;;;;5075314;28;20195;-69
2023/07/03 04:15:32;;;;;;;16.15;4.85;;;;;;;;;;5068746;28;20213;-68
2023/07/03 04:18:01;;;;;;;12.60;4.40;;;;;;;;;;5070286;28;20202;-69
2023/07/03 04:20:28;;;;;;;15.18;4.00;;;;;;;;;;5071365;28;20209;-70
2023/07/03 04:22:55;;;;;;;9.07;4.18;;;;;;;;;;5077667;28;20202;-69
2023/07/03 04:25:22;;;;;;;13.45;4.28;;;;;;;;;;5071615;28;20209;-68
2023/07/03 04:27:49;;;;;;;14.85;5.13;;;;;;;;;;5071617;28;20223;-69
2023/07/03 04:30:17;;;;;;;12.05;4.35;;;;;;;;;;5077057;28;20214;-69
2023/07/03 04:32:53;;;;;;;10.82;4.13;;;;;;;;;;5072618;28;20207;-69
2023/07/03 04:35:22;;;;;;;14.10;4.18;;;;;;;;;;5075931;28;20194;-71
2023/07/03 04:37:50;;;;;;;11.07;4.43;;;;;;;;;;5071269;28;20241;-70
2023/07/03 04:40:17;;;;;;;14.68;4.53;;;;;;;;;;5069137;28;20248;-70
2023/07/03 04:42:44;;;;;;;12.77;4.13;;;;;;;;;;5075543;28;20198;-70
2023/07/03 04:45:12;;;;;;;15.30;4.22;;;;;;;;;;5071649;28;20207;-72
2023/07/03 04:47:39;;;;;;;11.32;4.38;;;;;;;;;;5073463;28;20219;-73
2023/07/03 04:50:07;;;;;;;13.00;4.30;;;;;;;;;;5070938;28;20206;-72
2023/07/03 04:52:38;;;;;;;14.18;4.43;;;;;;;;;;5072490;28;20203;-72
2023/07/03 04:55:06;;;;;;;15.80;5.00;;;;;;;;;;5072816;28;20205;-72
2023/07/03 04:57:33;;;;;;;10.02;4.18;;;;;;;;;;5069902;28;20207;-73
2023/07/03 05:00:01;;;;;;;13.52;4.32;;;;;;;;;;5073889;28;20210;-72
2023/07/03 05:02:28;;;;;;;11.70;4.05;;;;;;;;;;5067141;28;20206;-72
2023/07/03 05:04:55;;;;;;;11.98;4.20;;;;;;;;;;5075894;28;20216;-72
2023/07/03 05:07:23;;;;;;;14.52;4.47;;;;;;;;;;5074774;28;20222;-72
2023/07/03 05:09:53;;;;;;;12.18;4.35;;;;;;;;;;5070825;28;20211;-72
2023/07/03 05:12:20;;;;;;;15.07;4.55;;;;;;;;;;5072432;28;20297;-72
2023/07/03 05:14:48;;;;;;;13.70;4.40;;;;;;;;;;5072409;28;20211;-72
2023/07/03 05:17:15;;;;;;;11.27;4.10;;;;;;;;;;5076027;28;20217;-72
2023/07/03 05:19:42;;;;;;;11.27;4.30;;;;;;;;;;5078174;28;20203;-72
2023/07/03 05:22:09;;;;;;;14.90;4.10;;;;;;;;;;5075691;28;20199;-72
2023/07/03 05:24:36;;;;;;;13.18;4.65;;;;;;;;;;5074371;28;20213;-71
2023/07/03 05:27:05;;;;;;;8.90;3.92;;;;;;;;;;5070376;28;20206;-72
2023/07/03 05:29:33;;;;;;;14.52;4.68;;;;;;;;;;5072726;28;20195;-71
2023/07/03 05:32:00;;;;;;;11.00;3.95;;;;;;;;;;5078968;28;20191;-72
2023/07/03 05:34:27;;;;;;;12.75;4.28;;;;;;;;;;5068136;28;20211;-72
2023/07/03 05:36:56;;;;;;;15.13;4.45;;;;;;;;;;5073436;28;20238;-71
2023/07/03 05:39:23;;;;;;;13.50;4.38;;;;;;;;;;5075514;28;20202;-72
2023/07/03 05:41:50;;;;;;;14.80;4.43;;;;;;;;;;5070392;28;20191;-71
2023/07/03 05:44:20;;;;;;;12.35;4.38;;;;;;;;;;5070914;28;20218;-73
2023/07/03 05:46:47;;;;;;;12.35;3.92;;;;;;;;;;5070593;28;20203;-73
2023/07/03 05:49:14;;;;;;;11.52;4.30;;;;;;;;;;5074357;28;20226;-73
2023/07/03 05:51:41;;;;;;;12.20;4.10;;;;;;;;;;5078219;28;20214;-71
2023/07/03 05:54:08;;;;;;;16.10;4.30;;;;;;;;;;5078824;28;20289;-73
2023/07/03 05:56:36;;;;;;;11.15;4.60;;;;;;;;;;5077858;28;20202;-73
2023/07/03 05:59:03;;;;;;;10.10;4.45;;;;;;;;;;5073945;28;20194;-71
2023/07/03 06:01:31;;;;;;;12.13;4.38;;;;;;;;;;5078515;28;20194;-72
2023/07/03 06:03:59;;;;;;;15.10;4.82;;;;;;;;;;5074804;28;20209;-73
2023/07/03 06:06:26;;;;;;;11.38;4.10;;;;;;;;;;5073348;28;20194;-72
2023/07/03 06:08:53;;;;;;;11.85;4.35;;;;;;;;;;5077899;28;20253;-71
2023/07/03 06:11:20;;;;;;;9.77;4.10;;;;;;;;;;5074139;28;20211;-73
2023/07/03 06:13:47;;;;;;;13.63;4.57;;;;;;;;;;5082942;28;20213;-71
2023/07/03 06:16:14;;;;;;;12.43;4.85;;;;;;;;;;5076375;28;20216;-72
2023/07/03 06:18:43;;;;;;;13.25;4.57;;;;;;;;;;5075424;28;20203;-73
2023/07/03 06:21:10;;;;;;;11.05;4.50;;;;;;;;;;5082829;28;20194;-73
2023/07/03 06:23:37;;;;;;;12.00;4.63;;;;;;;;;;5076122;28;20199;-73
2023/07/03 06:26:04;;;;;;;12.85;4.47;;;;;;;;;;5068935;28;20217;-73
2023/07/03 06:28:32;;;;;;;12.93;4.25;;;;;;;;;;5076502;28;20242;-73
2023/07/03 06:30:59;;;;;;;16.17;4.88;;;;;;;;;;5081910;28;20202;-73
2023/07/03 06:33:26;;;;;;;15.77;5.22;;;;;;;;;;5081990;28;20263;-72
2023/07/03 06:35:55;;;;;;;15.18;4.50;;;;;;;;;;5078472;28;20257;-74
2023/07/03 06:38:23;;;;;;;10.93;4.40;;;;;;;;;;5078017;28;20248;-73
2023/07/03 06:40:56;;;;;;;11.65;4.32;;;;;;;;;;5081029;28;20194;-73
2023/07/03 06:43:24;;;;;;;16.17;4.90;;;;;;;;;;5072731;28;20289;-72
2023/07/03 06:45:51;;;;;;;12.18;4.57;;;;;;;;;;5076058;28;20215;-73
2023/07/03 06:48:18;;;;;;;9.48;4.20;;;;;;;;;;5086951;28;20222;-73
2023/07/03 06:50:46;;;;;;;13.13;4.50;;;;;;;;;;5076014;28;20206;-74
2023/07/03 06:53:14;;;;;;;11.48;4.13;;;;;;;;;;5074672;28;20210;-73
2023/07/03 06:55:42;;;;;;;17.25;4.80;;;;;;;;;;5071860;28;20226;-73
2023/07/03 06:58:09;;;;;;;12.25;4.50;;;;;;;;;;5076824;28;20206;-74
2023/07/03 07:00:37;;;;;;;12.93;5.00;;;;;;;;;;5075016;28;20256;-74
2023/07/03 07:03:04;;;;;;;15.50;5.10;;;;;;;;;;5078925;28;20213;-73
2023/07/03 07:05:32;;;;;;;9.63;4.13;;;;;;;;;;5084746;28;20243;-73
2023/07/03 07:07:59;;;;;;;14.15;4.78;;;;;;;;;;5079134;28;20248;-73
2023/07/03 07:10:28;;;;;;;13.60;4.50;;;;;;;;;;5083679;28;20237;-73
2023/07/03 07:12:55;;;;;;;17.52;5.25;;;;;;;;;;5073190;28;20210;-73
2023/07/03 07:15:22;;;;;;;16.85;4.60;;;;;;;;;;5075578;28;20206;-73
2023/07/03 07:17:51;;;;;;;13.27;4.47;;;;;;;;;;5073632;28;20226;-74
2023/07/03 07:20:18;;;;;;;13.70;4.47;;;;;;;;;;5065352;28;20301;-73
2023/07/03 07:22:45;;;;;;;13.88;4.70;;;;;;;;;;5069247;28;20206;-73
2023/07/03 07:25:13;;;;;;;14.55;4.53;;;;;;;;;;5074594;28;20199;-73
2023/07/03 07:27:42;;;;;;;14.23;4.97;;;;;;;;;;5067744;28;20222;-71
2023/07/03 07:30:10;;;;;;;16.40;4.60;;;;;;;;;;5072840;28;20199;-72
2023/07/03 07:32:37;;;;;;;13.25;4.30;;;;;;;;;;5076201;28;20267;-73
2023/07/03 07:35:05;;;;;;;11.27;5.05;;;;;;;;;;5072901;28;20210;-74
2023/07/03 07:37:32;;;;;;;16.38;4.68;;;;;;;;;;5074574;28;20226;-74
2023/07/03 07:40:00;;;;;;;12.10;4.60;;;;;;;;;;5077211;28;20205;-75
2023/07/03 07:42:31;;;;;;;19.95;7.63;;;;;;;;;;5071557;28;20273;-74
2023/07/03 07:45:00;;;;;;;18.33;5.35;;;;;;;;;;5079000;28;20195;-75
2023/07/03 07:47:27;;;;;;;10.93;4.38;;;;;;;;;;5079028;28;20209;-74
2023/07/03 07:49:54;;;;;;;12.55;4.72;;;;;;;;;;5085062;28;20223;-75
2023/07/03 07:52:23;;;;;;;12.80;4.43;;;;;;;;;;5074841;28;20206;-74
2023/07/03 07:54:54;;;;;;;10.98;4.30;;;;;;;;;;5077577;28;20289;-75
2023/07/03 07:57:23;;;;;;;11.10;4.43;;;;;;;;;;5080018;28;20240;-72
2023/07/03 07:59:50;;;;;;;13.05;4.65;;;;;;;;;;5081801;28;20236;-72
2023/07/03 08:02:19;;;;;;;16.77;4.93;;;;;;;;;;5077945;28;20260;-73
2023/07/03 08:04:46;;;;;;;14.35;5.07;;;;;;;;;;5075052;28;20202;-72
2023/07/03 08:07:14;;;;;;;14.43;4.63;;;;;;;;;;5077759;28;20207;-72
2023/07/03 08:09:41;;;;;;;10.40;4.30;;;;;;;;;;5077924;28;20272;-72
2023/07/03 08:12:09;;;;;;;14.07;4.68;;;;;;;;;;5077999;28;20208;-72
2023/07/03 08:14:36;;;;;;;13.18;4.65;;;;;;;;;;5078930;28;20203;-72
2023/07/03 08:17:03;;;;;;;13.93;4.93;;;;;;;;;;5077260;28;20210;-72
2023/07/03 08:19:32;;;;;;;10.57;4.30;;;;;;;;;;5073976;28;20233;-72
2023/07/03 08:22:00;;;;;;;11.52;4.15;;;;;;;;;;5072235;28;20210;-72
2023/07/03 08:24:27;;;;;;;11.70;4.28;;;;;;;;;;5073487;28;20340;-71
2023/07/03 08:26:54;;;;;;;15.18;4.55;;;;;;;;;;5070492;28;20223;-72
2023/07/03 08:29:22;;;;;;;11.77;4.47;;;;;;;;;;5070794;28;20272;-72
2023/07/03 08:31:49;;;;;;;11.15;4.60;;;;;;;;;;5071925;28;20230;-72
2023/07/03 08:34:16;;;;;;;9.30;4.00;;;;;;;;;;5073659;28;20206;-72
2023/07/03 08:36:45;;;;;;;11.95;4.22;;;;;;;;;;5069574;28;20257;-73
2023/07/03 08:39:13;;;;;;;12.20;4.53;;;;;;;;;;5077064;28;20199;-72
2023/07/03 08:41:42;;;;;;;10.55;4.05;;;;;;;;;;5075461;28;20213;-73
2023/07/03 08:44:10;;;;;;;11.30;4.28;;;;;;;;;;5077147;28;20209;-72
2023/07/03 08:46:38;;;;;;;12.80;4.57;;;;;;;;;;5078101;28;20205;-72
2023/07/03 08:49:07;;;;;;;11.75;4.22;;;;;;;;;;5076067;28;20230;-74
2023/07/03 08:51:37;;;;;;;12.75;4.25;;;;;;;;;;5074847;28;20213;-72
2023/07/03 08:54:08;;;;;;;13.18;4.60;;;;;;;;;;5078335;28;20195;-72
2023/07/03 08:56:35;;;;;;;10.27;4.07;;;;;;;;;;5076937;28;20276;-72
2023/07/03 08:59:04;;;;;;;10.45;4.03;;;;;;;;;;5077435;28;20222;-71
2023/07/03 09:01:34;;;;;;;13.18;4.82;;;;;;;;;;5079676;28;20203;-72
2023/07/03 09:04:08;;;;;;;8.93;3.97;;;;;;;;;;5079677;28;20264;-72
2023/07/03 09:06:40;;;;;;;11.98;4.45;;;;;;;;;;5078770;28;20304;-72
2023/07/03 09:09:14;;;;;;;10.85;4.20;;;;;;;;;;5074151;28;20223;-73
2023/07/03 09:11:46;;;;;;;7.00;3.47;;;;;;;;;;5071487;28;20301;-71
2023/07/03 09:14:18;;;;;;;8.23;3.95;;;;;;;;;;5075890;28;20203;-74
2023/07/03 09:16:46;;;;;;;8.20;3.67;;;;;;;;;;5074095;28;20207;-74
2023/07/03 09:19:17;;;;;;;8.13;3.47;;;;;;;;;;5072004;28;20289;-72
2023/07/03 09:21:46;;;;;;;6.00;3.42;;;;;;;;;;5073157;28;20202;-72
2023/07/03 09:24:19;;;;;;;6.88;3.35;;;;;;;;;;5076814;28;20209;-72
2023/07/03 09:26:50;;;;;;;5.10;3.28;;;;;;;;;;5082767;28;20201;-72
2023/07/03 09:29:17;;;;;;;6.60;3.65;;;;;;;;;;5082242;28;20317;-71
2023/07/03 09:31:45;;;;;;;8.55;3.80;;;;;;;;;;5084226;28;20259;-73
2023/07/03 09:34:17;;;;;;;4.75;3.67;;;;;;;;;;5083101;28;20204;-72
2023/07/03 09:36:45;;;;;;;12.82;3.63;;;;;;;;;;5079147;28;20364;-73
2023/07/03 09:39:14;;;;;;;5.55;3.50;;;;;;;;;;5082716;28;20210;-72
2023/07/03 09:41:50;;;;;;;9.10;4.05;;;;;;;;;;5079027;28;20227;-74
2023/07/03 09:44:18;;;;;;;5.80;3.30;;;;;;;;;;5080642;28;20203;-74
2023/07/03 09:46:47;;;;;;;7.93;3.70;;;;;;;;;;5080679;28;20205;-73
2023/07/03 09:49:16;;;;;;;6.18;3.25;;;;;;;;;;5070145;28;20222;-74
2023/07/03 09:51:43;;;;;;;6.18;3.50;;;;;;;;;;5069655;28;20211;-72
2023/07/03 09:54:18;;;;;;;6.97;3.55;;;;;;;;;;5073451;28;20206;-73
2023/07/03 09:56:50;;;;;;;7.25;3.30;;;;;;;;;;5072805;28;20207;-72
2023/07/03 09:59:19;;;;;;;6.15;3.35;;;;;;;;;;5080548;28;20214;-73
2023/07/03 10:01:47;;;;;;;4.60;3.20;;;;;;;;;;5073474;28;20206;-74
2023/07/03 10:04:16;;;;;;;7.80;3.78;;;;;;;;;;5080875;28;20287;-73
2023/07/03 10:06:44;;;;;;;7.95;3.45;;;;;;;;;;5080300;28;20230;-72
2023/07/03 10:09:17;;;;;;;6.70;3.53;;;;;;;;;;5075731;28;20264;-73
2023/07/03 10:11:50;;;;;;;5.57;2.97;;;;;;;;;;5075633;28;20198;-72
2023/07/03 10:14:21;;;;;;;5.20;3.45;;;;;;;;;;5076540;28;20210;-74
2023/07/03 10:16:50;;;;;;;7.75;3.42;;;;;;;;;;5076685;28;20251;-68
2023/07/03 10:19:18;;;;;;;4.57;3.05;;;;;;;;;;5074762;28;20260;-68
2023/07/03 10:21:46;;;;;;;5.68;3.47;;;;;;;;;;5080007;28;20210;-74
2023/07/03 10:24:13;;;;;;;6.10;3.55;;;;;;;;;;5078690;28;20209;-72
2023/07/03 10:26:43;;;;;;;9.23;3.30;;;;;;;;;;5080003;28;20293;-72
2023/07/03 10:29:13;;;;;;;5.30;3.70;;;;;;;;;;5082901;28;20317;-74
2023/07/03 10:31:47;;;;;;;6.95;3.05;;;;;;;;;;5079581;28;20212;-74
2023/07/03 10:34:19;;;;;;;5.25;3.25;;;;;;;;;;5075449;28;20232;-73
2023/07/03 10:36:49;;;;;;;5.90;3.20;;;;;;;;;;5075147;28;20227;-72
2023/07/03 10:39:20;;;;;;;6.68;2.90;;;;;;;;;;5078402;28;20199;-72
2023/07/03 10:41:50;;;;;;;6.03;3.30;;;;;;;;;;5074534;28;20221;-72
2023/07/03 10:44:18;;;;;;;5.75;3.20;;;;;;;;;;5075930;28;20213;-72
2023/07/03 10:46:49;;;;;;;5.45;3.25;;;;;;;;;;5077371;28;20206;-72
2023/07/03 10:49:20;;;;;;;8.45;3.42;;;;;;;;;;5079793;28;20251;-72
2023/07/03 10:51:53;;;;;;;7.65;3.40;;;;;;;;;;5085788;28;20212;-73
2023/07/03 10:54:22;;;;;;;5.25;3.20;;;;;;;;;;5077374;28;20203;-74
2023/07/03 10:56:52;;;;;;;7.95;3.53;;;;;;;;;;5080392;28;20275;-72
2023/07/03 10:59:21;;;;;;;6.38;3.20;;;;;;;;;;5078771;28;20210;-74
2023/07/03 11:01:53;;;;;;;4.57;3.10;;;;;;;;;;5076494;28;20202;-73
2023/07/03 11:04:25;;;;;;;4.00;2.83;;;;;;;;;;5071874;28;20263;-75
2023/07/03 11:07:00;;;;;;;4.28;3.00;;;;;;;;;;5076963;28;20207;-74
2023/07/03 11:09:33;;;;;;;7.03;3.00;;;;;;;;;;5074882;28;20210;-77
2023/07/03 11:12:04;;;;;;;4.93;3.08;;;;;;;;;;5072109;28;20201;-76
2023/07/03 11:14:33;;;;;;;5.18;3.13;;;;;;;;;;5072012;28;20209;-75
2023/07/03 11:17:08;;;;;;;6.22;3.17;;;;;;;;;;5073057;28;20285;-76
2023/07/03 11:19:38;;;;;;;5.45;3.20;;;;;;;;;;5078364;28;20208;-74
2023/07/03 11:22:12;;;;;;;6.00;3.40;;;;;;;;;;5082153;28;20202;-73
2023/07/03 11:24:43;;;;;;;3.83;3.00;;;;;;;;;;5079811;28;20202;-73
2023/07/03 11:27:15;;;;;;;4.68;3.22;;;;;;;;;;5079462;28;20202;-75
2023/07/03 11:29:42;;;;;;;4.88;3.30;;;;;;;;;;5074788;28;20513;-75
2023/07/03 11:32:13;;;;;;;4.75;2.88;;;;;;;;;;5075612;28;20328;-74
2023/07/03 11:34:42;;;;;;;5.85;2.97;;;;;;;;;;5079477;28;20218;-75
2023/07/03 11:37:24;;;;;;;5.07;3.05;;;;;;;;;;5076913;28;20230;-75
2023/07/03 11:39:52;;;;;;;7.28;3.20;;;;;;;;;;5069914;28;20199;-74
2023/07/03 11:42:25;;;;;;;6.10;3.50;;;;;;;;;;5073718;28;20209;-75
2023/07/03 11:45:00;;;;;;;6.15;3.25;;;;;;;;;;5072992;28;20234;-77
2023/07/03 11:47:29;;;;;;;6.22;3.17;;;;;;;;;;5072119;28;20293;-76
2023/07/03 11:50:00;;;;;;;5.15;3.20;;;;;;;;;;5071746;28;20218;-75
2023/07/03 11:52:28;;;;;;;7.35;3.33;;;;;;;;;;5072561;28;20227;-75
2023/07/03 11:54:59;;;;;;;6.60;3.10;;;;;;;;;;5071318;28;20209;-73
2023/07/03 11:57:29;;;;;;;6.50;3.05;;;;;;;;;;5075227;28;20268;-75
2023/07/03 12:00:13;;;;;;;6.47;3.10;;;;;;;;;;5072830;28;20199;-75
2023/07/03 12:02:51;;;;;;;13.38;3.40;;;;;;;;;;5076519;28;20206;-76
2023/07/03 12:05:37;;;;;;;5.32;3.50;;;;;;;;;;5074206;28;20289;-74
2023/07/03 12:08:04;;;;;;;4.82;3.22;;;;;;;;;;5073988;28;20241;-75
2023/07/03 12:11:00;;;;;;;7.03;3.47;;;;;;;;;;5074452;28;20226;-74
2023/07/03 12:13:28;;;;;;;5.28;3.38;;;;;;;;;;5071820;28;20207;-75
2023/07/03 12:15:59;;;;;;;7.57;3.38;;;;;;;;;;5071668;28;20210;-75
2023/07/03 12:18:28;;;;;;;4.80;3.10;;;;;;;;;;5067499;28;20209;-74
2023/07/03 12:20:59;;;;;;;5.15;3.22;;;;;;;;;;5073985;28;20206;-76
2023/07/03 12:23:34;;;;;;;4.85;3.40;;;;;;;;;;5077344;28;20225;-76
2023/07/03 12:26:02;;;;;;;6.93;3.25;;;;;;;;;;5071740;28;20276;-76
2023/07/03 12:28:30;;;;;;;5.38;2.95;;;;;;;;;;5073723;28;20228;-76
2023/07/03 12:31:10;;;;;;;6.95;3.40;;;;;;;;;;5077968;28;20218;-75
2023/07/03 12:33:38;;;;;;;7.93;3.25;;;;;;;;;;5068723;28;20207;-75
2023/07/03 12:36:06;;;;;;;5.25;3.28;;;;;;;;;;5077655;28;20202;-73
2023/07/03 12:38:34;;;;;;;6.05;3.20;;;;;;;;;;5079103;28;20210;-75
2023/07/03 12:41:03;;;;;;;4.85;2.90;;;;;;;;;;5079505;28;20280;-75
2023/07/03 12:43:32;;;;;;;6.18;3.17;;;;;;;;;;5078187;28;20209;-76
2023/07/03 12:46:02;;;;;;;8.13;3.35;;;;;;;;;;5079564;28;20221;-75
2023/07/03 12:48:30;;;;;;;6.53;3.30;;;;;;;;;;5081588;28;20243;-76
2023/07/03 12:51:02;;;;;;;6.63;3.72;;;;;;;;;;5076296;28;20236;-75
2023/07/03 12:53:34;;;;;;;5.30;3.10;;;;;;;;;;5073211;28;20248;-75
2023/07/03 12:56:05;;;;;;;4.25;3.10;;;;;;;;;;5074291;28;20210;-76
2023/07/03 12:58:33;;;;;;;6.78;3.28;;;;;;;;;;5074966;28;20206;-75
2023/07/03 13:01:01;;;;;;;5.63;3.40;;;;;;;;;;5076788;28;20212;-76
2023/07/03 13:03:30;;;;;;;5.20;3.13;;;;;;;;;;5072690;28;20212;-76
2023/07/03 13:05:58;;;;;;;6.53;3.30;;;;;;;;;;5074516;28;20198;-75
2023/07/03 13:08:27;;;;;;;4.82;2.95;;;;;;;;;;5072647;28;20210;-75
2023/07/03 13:10:59;;;;;;;4.25;3.10;;;;;;;;;;5076476;28;20221;-75
2023/07/03 13:13:26;;;;;;;4.25;3.25;;;;;;;;;;5056641;28;20293;-75
2023/07/03 13:15:53;;;;;;;4.75;2.78;;;;;;;;;;5075509;28;20289;-76
2023/07/03 13:18:22;;;;;;;5.50;3.45;;;;;;;;;;5077969;28;20199;-75
2023/07/03 13:20:56;;;;;;;4.82;3.22;;;;;;;;;;5077690;28;20277;-75
2023/07/03 13:23:29;;;;;;;5.40;3.13;;;;;;;;;;5072938;28;20210;-75
2023/07/03 13:25:57;;;;;;;3.95;3.00;;;;;;;;;;5065818;28;20206;-75
2023/07/03 13:28:25;;;;;;;7.18;3.42;;;;;;;;;;5068273;28;20214;-77
2023/07/03 13:31:04;;;;;;;5.55;3.00;;;;;;;;;;5071695;28;20237;-75
2023/07/03 13:33:31;;;;;;;10.02;3.58;;;;;;;;;;5073688;28;20210;-75
2023/07/03 13:35:59;;;;;;;5.57;3.28;;;;;;;;;;5076098;28;20261;-74
2023/07/03 13:38:32;;;;;;;4.15;3.35;;;;;;;;;;5069472;28;20238;-74
2023/07/03 13:41:00;;;;;;;5.47;3.55;;;;;;;;;;5073987;28;20209;-75
2023/07/03 13:43:29;;;;;;;5.80;3.13;;;;;;;;;;5068613;28;20207;-76
2023/07/03 13:45:56;;;;;;;5.63;3.25;;;;;;;;;;5074705;28;20202;-76
2023/07/03 13:48:24;;;;;;;5.32;2.78;;;;;;;;;;5068491;28;20199;-73
2023/07/03 13:50:53;;;;;;;6.25;3.15;;;;;;;;;;5074120;28;20219;-75
2023/07/03 13:53:20;;;;;;;7.68;3.35;;;;;;;;;;5073065;28;20217;-76
2023/07/03 13:55:48;;;;;;;5.32;3.00;;;;;;;;;;5072198;28;20210;-76
2023/07/03 13:58:16;;;;;;;8.05;3.20;;;;;;;;;;5069322;28;20209;-76
2023/07/03 14:00:43;;;;;;;6.32;3.42;;;;;;;;;;5067272;28;20210;-75
2023/07/03 14:03:13;;;;;;;4.57;3.40;;;;;;;;;;5072172;28;20249;-76
2023/07/03 14:05:40;;;;;;;7.28;3.28;;;;;;;;;;5072428;28;20203;-75
2023/07/03 14:08:08;;;;;;;5.10;3.40;;;;;;;;;;5068615;28;20299;-76
2023/07/03 14:10:35;;;;;;;4.00;3.00;;;;;;;;;;5075702;28;20231;-74
2023/07/03 14:13:05;;;;;;;4.95;3.20;;;;;;;;;;5081187;28;20210;-76
2023/07/03 14:15:32;;;;;;;5.20;3.05;;;;;;;;;;5078970;28;20253;-76
2023/07/03 14:17:59;;;;;;;6.47;3.30;;;;;;;;;;5082278;28;20206;-77
2023/07/03 14:20:27;;;;;;;5.53;3.58;;;;;;;;;;5074782;28;20206;-75
2023/07/03 14:22:54;;;;;;;5.25;3.13;;;;;;;;;;5079834;28;20205;-74
2023/07/03 14:25:23;;;;;;;5.63;3.42;;;;;;;;;;5079435;28;20293;-76
2023/07/03 14:27:51;;;;;;;4.75;2.90;;;;;;;;;;5077048;28;20218;-74
2023/07/03 14:30:20;;;;;;;5.78;3.13;;;;;;;;;;5079692;28;20241;-75
2023/07/03 14:32:47;;;;;;;5.25;2.85;;;;;;;;;;5080929;28;20198;-76
2023/07/03 14:35:14;;;;;;;3.95;2.78;;;;;;;;;;5075431;28;20210;-74
2023/07/03 14:37:42;;;;;;;10.10;3.10;;;;;;;;;;5075787;28;20226;-73
2023/07/03 14:40:09;;;;;;;5.63;2.88;;;;;;;;;;5072690;28;20213;-75
2023/07/03 14:42:36;;;;;;;5.93;3.15;;;;;;;;;;5079984;28;20214;-74
2023/07/03 14:45:04;;;;;;;3.60;2.72;;;;;;;;;;5073518;28;20297;-75